createdAt,value
2023-02-23T00:01:35.286Z,14.52
2023-02-23T00:04:02.790Z,14.46
2023-02-23T00:06:31.240Z,14.45
2023-02-23T00:09:01.073Z,13.92
2023-02-23T00:11:28.472Z,14.11
2023-02-23T00:13:56.806Z,14.06
2023-02-23T00:16:25.052Z,14.05
2023-02-23T00:18:53.932Z,14.21
2023-02-23T00:21:23.111Z,14.04
2023-02-23T00:23:54.999Z,14.29
2023-02-23T00:26:24.690Z,14.06
2023-02-23T00:28:53.637Z,14.23
2023-02-23T00:31:25.773Z,14.20
2023-02-23T00:33:54.190Z,14.20
2023-02-23T00:36:23.058Z,14.09
2023-02-23T00:38:53.448Z,14.27
2023-02-23T00:41:23.812Z,14.17
2023-02-23T00:43:50.410Z,14.19
2023-02-23T00:46:19.020Z,14.31
2023-02-23T00:48:45.907Z,13.87
2023-02-23T00:51:12.993Z,14.14
2023-02-23T00:53:41.471Z,14.26
2023-02-23T00:56:09.476Z,14.04
2023-02-23T00:58:36.320Z,13.90
2023-02-23T01:01:06.894Z,13.89
2023-02-23T01:03:33.836Z,14.00
2023-02-23T01:06:05.545Z,13.97
2023-02-23T01:08:34.374Z,14.10
2023-02-23T01:11:07.003Z,14.05
2023-02-23T01:13:33.503Z,13.88
2023-02-23T01:16:00.099Z,13.96
2023-02-23T01:18:27.032Z,14.13
2023-02-23T01:20:54.107Z,13.84
2023-02-23T01:23:21.776Z,13.95
2023-02-23T01:25:48.390Z,14.08
2023-02-23T01:28:14.876Z,14.11
2023-02-23T01:30:41.989Z,14.13
2023-02-23T01:33:09.222Z,14.03
2023-02-23T01:35:35.692Z,14.14
2023-02-23T01:38:03.641Z,14.02
2023-02-23T01:40:31.667Z,13.88
2023-02-23T01:43:26.484Z,13.91
2023-02-23T01:45:58.103Z,13.91
2023-02-23T01:48:32.731Z,14.04
2023-02-23T01:51:05.277Z,13.91
2023-02-23T01:53:35.359Z,13.79
2023-02-23T01:56:11.224Z,13.84
2023-02-23T01:58:43.627Z,13.25
2023-02-23T02:01:11.301Z,13.71
2023-02-23T02:03:48.782Z,13.69
2023-02-23T02:06:18.598Z,13.88
2023-02-23T02:08:48.550Z,13.82
2023-02-23T02:11:30.716Z,13.86
2023-02-23T02:14:00.163Z,13.93
2023-02-23T02:16:34.412Z,13.93
2023-02-23T02:19:23.536Z,13.96
2023-02-23T02:22:11.755Z,13.87
2023-02-23T02:24:52.353Z,13.81
2023-02-23T02:27:28.809Z,13.75
2023-02-23T02:30:13.963Z,13.59
2023-02-23T02:33:04.686Z,13.74
2023-02-23T02:35:49.562Z,13.89
2023-02-23T02:38:34.477Z,13.97
2023-02-23T02:41:14.255Z,14.03
2023-02-23T02:43:42.886Z,14.01
2023-02-23T02:46:21.185Z,13.93
2023-02-23T02:48:57.666Z,13.99
2023-02-23T02:51:28.596Z,14.01
2023-02-23T02:54:11.128Z,14.00
2023-02-23T02:56:40.504Z,13.90
2023-02-23T02:59:31.436Z,13.98
2023-02-23T03:02:17.068Z,13.89
2023-02-23T03:05:02.733Z,14.01
2023-02-23T03:08:07.113Z,14.05
2023-02-23T03:11:14.290Z,14.05
2023-02-23T03:14:30.773Z,14.01
2023-02-23T03:17:25.144Z,13.86
2023-02-23T03:20:33.312Z,13.91
2023-02-23T03:23:30.462Z,13.95
2023-02-23T03:26:26.995Z,13.99
2023-02-23T03:29:23.566Z,14.01
2023-02-23T03:32:32.164Z,13.93
2023-02-23T03:35:31.517Z,14.02
2023-02-23T03:38:41.251Z,14.03
2023-02-23T03:41:27.414Z,13.97
2023-02-23T03:44:17.060Z,13.96
2023-02-23T03:47:03.715Z,14.04
2023-02-23T03:49:53.264Z,13.93
2023-02-23T03:52:53.786Z,14.02
2023-02-23T03:55:46.379Z,13.95
2023-02-23T03:58:36.615Z,13.97
2023-02-23T04:01:23.267Z,13.94
2023-02-23T04:04:09.905Z,13.96
2023-02-23T04:06:57.172Z,14.04
2023-02-23T04:09:42.284Z,14.05
2023-02-23T04:12:31.879Z,14.01
2023-02-23T04:15:05.086Z,13.97
2023-02-23T04:17:31.545Z,13.89
2023-02-23T04:19:58.313Z,13.99
2023-02-23T04:22:25.198Z,14.02
2023-02-23T04:24:51.791Z,13.90
2023-02-23T04:27:18.727Z,13.86
2023-02-23T04:29:45.272Z,13.99
2023-02-23T04:32:17.133Z,13.96
2023-02-23T04:34:44.699Z,13.96
2023-02-23T04:37:11.732Z,13.99
2023-02-23T04:39:38.236Z,13.89
2023-02-23T04:42:05.508Z,13.71
2023-02-23T04:44:31.967Z,13.76
2023-02-23T04:46:58.444Z,13.58
2023-02-23T04:49:25.117Z,13.44
2023-02-23T04:51:51.653Z,13.68
2023-02-23T04:54:18.283Z,13.78
2023-02-23T04:56:44.826Z,13.87
2023-02-23T04:59:11.304Z,13.93
2023-02-23T05:01:37.900Z,13.92
2023-02-23T05:04:04.913Z,13.95
2023-02-23T05:06:31.995Z,13.86
2023-02-23T05:08:58.487Z,13.95
2023-02-23T05:11:26.562Z,13.80
2023-02-23T05:13:54.576Z,13.86
2023-02-23T05:16:21.540Z,13.73
2023-02-23T05:18:48.538Z,13.81
2023-02-23T05:21:15.271Z,13.70
2023-02-23T05:23:41.832Z,13.25
2023-02-23T05:26:10.948Z,13.14
2023-02-23T05:28:39.262Z,13.24
2023-02-23T05:31:06.135Z,13.12
2023-02-23T05:33:33.874Z,12.75
2023-02-23T05:36:00.750Z,13.03
2023-02-23T05:38:27.429Z,12.67
2023-02-23T05:40:54.161Z,12.78
2023-02-23T05:43:21.284Z,12.95
2023-02-23T05:45:47.799Z,12.59
2023-02-23T05:48:14.499Z,12.87
2023-02-23T05:50:41.033Z,13.17
2023-02-23T05:53:07.821Z,13.33
2023-02-23T05:55:35.949Z,13.34
2023-02-23T05:58:02.436Z,13.40
2023-02-23T06:00:28.900Z,13.53
2023-02-23T06:02:55.593Z,13.27
2023-02-23T06:05:22.086Z,13.20
2023-02-23T06:07:48.570Z,13.40
2023-02-23T06:10:15.184Z,13.19
2023-02-23T06:12:41.744Z,13.12
2023-02-23T06:15:08.762Z,12.78
2023-02-23T06:17:36.183Z,12.25
2023-02-23T06:20:04.861Z,12.62
2023-02-23T06:22:31.739Z,12.81
2023-02-23T06:24:58.335Z,12.54
2023-02-23T06:27:24.907Z,12.44
2023-02-23T06:29:51.376Z,12.43
2023-02-23T06:32:18.040Z,12.74
2023-02-23T06:34:44.821Z,12.89
2023-02-23T06:37:12.027Z,13.16
2023-02-23T06:39:38.567Z,13.08
2023-02-23T06:42:05.070Z,13.25
2023-02-23T06:44:35.320Z,12.97
2023-02-23T06:47:05.632Z,13.03
2023-02-23T06:49:32.502Z,12.71
2023-02-23T06:51:59.105Z,12.83
2023-02-23T06:54:26.385Z,12.55
2023-02-23T06:56:53.240Z,12.63
2023-02-23T06:59:20.300Z,12.18
2023-02-23T07:01:46.854Z,12.00
2023-02-23T07:04:16.392Z,12.22
2023-02-23T07:06:43.376Z,12.34
2023-02-23T07:09:09.949Z,12.63
2023-02-23T07:11:36.496Z,12.65
2023-02-23T07:14:03.040Z,12.53
2023-02-23T07:16:29.774Z,12.97
2023-02-23T07:18:56.344Z,12.60
2023-02-23T07:21:22.858Z,12.28
2023-02-23T07:23:50.013Z,12.76
2023-02-23T07:26:18.436Z,12.36
2023-02-23T07:28:45.411Z,12.13
2023-02-23T07:31:12.045Z,12.12
2023-02-23T07:33:38.588Z,12.30
2023-02-23T07:36:05.617Z,12.33
2023-02-23T07:38:32.227Z,12.30
2023-02-23T07:40:58.766Z,12.48
2023-02-23T07:43:25.316Z,12.51
2023-02-23T07:45:52.390Z,12.46
2023-02-23T07:48:19.551Z,12.64
2023-02-23T07:50:46.052Z,12.93
2023-02-23T07:53:13.010Z,12.80
2023-02-23T07:55:40.202Z,12.60
2023-02-23T07:58:07.765Z,12.54
2023-02-23T08:00:36.515Z,13.03
2023-02-23T08:03:03.057Z,12.89
2023-02-23T08:05:29.740Z,12.33
2023-02-23T08:07:57.872Z,12.24
2023-02-23T08:10:24.515Z,12.62
2023-02-23T08:12:51.086Z,12.13
2023-02-23T08:15:18.136Z,11.88
2023-02-23T08:17:44.650Z,12.41
2023-02-23T08:20:11.573Z,12.36
2023-02-23T08:22:49.001Z,12.63
2023-02-23T08:25:17.300Z,12.88
2023-02-23T08:27:43.823Z,13.22
2023-02-23T08:30:11.080Z,13.02
2023-02-23T08:32:37.698Z,12.99
2023-02-23T08:35:04.890Z,13.07
2023-02-23T08:37:31.795Z,12.33
2023-02-23T08:39:59.216Z,12.26
2023-02-23T08:42:25.731Z,12.07
2023-02-23T08:44:52.690Z,12.35
2023-02-23T08:47:23.626Z,12.27
2023-02-23T08:49:50.717Z,12.11
2023-02-23T08:52:17.859Z,12.82
2023-02-23T08:54:44.358Z,12.88
2023-02-23T08:57:12.614Z,13.14
2023-02-23T08:59:41.110Z,13.09
2023-02-23T09:02:12.040Z,13.05
2023-02-23T09:04:41.755Z,13.09
2023-02-23T09:07:10.343Z,12.81
2023-02-23T09:09:36.874Z,12.94
2023-02-23T09:12:03.490Z,13.39
2023-02-23T09:14:30.348Z,12.83
2023-02-23T09:16:56.849Z,13.14
2023-02-23T09:19:23.375Z,13.46
2023-02-23T09:21:49.875Z,13.60
2023-02-23T09:24:18.546Z,13.13
2023-02-23T09:26:45.984Z,13.29
2023-02-23T09:29:12.626Z,12.46
2023-02-23T09:31:39.393Z,13.00
2023-02-23T09:34:06.003Z,13.30
2023-02-23T09:36:32.531Z,13.11
2023-02-23T09:38:59.476Z,13.19
2023-02-23T09:41:25.903Z,13.47
2023-02-23T09:44:11.984Z,13.45
2023-02-23T09:47:05.534Z,13.25
2023-02-23T09:49:35.402Z,13.36
2023-02-23T09:52:03.875Z,13.28
2023-02-23T09:54:33.567Z,13.42
2023-02-23T09:57:07.427Z,13.17
2023-02-23T09:59:36.129Z,13.50
2023-02-23T10:02:19.320Z,13.62
2023-02-23T10:04:50.241Z,13.72
2023-02-23T10:07:26.872Z,13.74
2023-02-23T10:10:12.879Z,13.74
2023-02-23T10:12:39.322Z,13.71
2023-02-23T10:15:33.546Z,13.53
2023-02-23T10:18:45.028Z,14.00
2023-02-23T10:21:20.794Z,13.79
2023-02-23T10:24:01.532Z,13.80
2023-02-23T10:26:38.955Z,13.87
2023-02-23T10:29:25.545Z,14.16
2023-02-23T10:31:57.195Z,13.81
2023-02-23T10:34:24.678Z,14.02
2023-02-23T10:37:02.098Z,14.05
2023-02-23T10:39:30.112Z,13.83
2023-02-23T10:41:58.488Z,13.00
2023-02-23T10:44:27.432Z,12.61
2023-02-23T10:47:06.271Z,12.61
2023-02-23T10:49:40.690Z,13.37
2023-02-23T10:52:13.572Z,12.34
2023-02-23T10:54:48.458Z,12.17
2023-02-23T10:57:30.641Z,12.41
2023-02-23T11:00:20.291Z,12.82
2023-02-23T11:02:47.844Z,12.32
2023-02-23T11:05:31.907Z,12.97
2023-02-23T11:08:10.594Z,13.10
2023-02-23T11:10:37.701Z,12.94
2023-02-23T11:13:04.226Z,13.32
2023-02-23T11:15:49.435Z,12.82
2023-02-23T11:18:23.243Z,12.96
2023-02-23T11:20:50.457Z,13.35
2023-02-23T11:23:34.621Z,13.49
2023-02-23T11:26:18.461Z,13.44
2023-02-23T11:28:53.098Z,13.39
2023-02-23T11:31:22.851Z,12.82
2023-02-23T11:33:50.273Z,12.94
2023-02-23T11:36:37.175Z,13.14
2023-02-23T11:39:08.046Z,12.94
2023-02-23T11:41:37.097Z,12.36
2023-02-23T11:44:06.282Z,11.99
2023-02-23T11:46:36.957Z,11.48
2023-02-23T11:49:06.954Z,11.82
2023-02-23T11:51:39.170Z,11.93
2023-02-23T11:54:07.466Z,11.97
2023-02-23T11:56:35.402Z,12.20
2023-02-23T11:59:07.286Z,12.16
2023-02-23T12:01:45.555Z,11.99
2023-02-23T12:04:33.865Z,12.42
2023-02-23T12:07:18.807Z,12.32
2023-02-23T12:09:47.359Z,12.11
2023-02-23T12:12:18.197Z,12.36
2023-02-23T12:14:57.481Z,12.30
2023-02-23T12:17:27.260Z,11.85
2023-02-23T12:20:14.121Z,12.04
2023-02-23T12:22:45.849Z,11.34
2023-02-23T12:25:33.583Z,10.68
2023-02-23T12:28:18.225Z,11.42
2023-02-23T12:30:52.277Z,11.30
2023-02-23T12:33:27.024Z,11.05
2023-02-23T12:35:59.547Z,11.09
2023-02-23T12:38:48.719Z,11.65
2023-02-23T12:41:38.574Z,11.12
2023-02-23T12:44:15.263Z,11.71
2023-02-23T12:46:48.922Z,11.63
2023-02-23T12:49:35.910Z,11.99
2023-02-23T12:52:17.886Z,11.41
2023-02-23T12:54:46.807Z,11.66
2023-02-23T12:57:19.520Z,11.53
2023-02-23T13:00:24.093Z,12.05
2023-02-23T13:03:02.976Z,11.72
2023-02-23T13:05:34.507Z,12.28
2023-02-23T13:08:27.396Z,11.93
2023-02-23T13:11:06.061Z,11.87
2023-02-23T13:13:50.610Z,12.07
2023-02-23T13:16:42.277Z,12.55
2023-02-23T13:19:15.231Z,12.23
2023-02-23T13:21:44.506Z,11.78
2023-02-23T13:24:24.370Z,12.34
2023-02-23T13:27:03.799Z,12.23
2023-02-23T13:29:39.900Z,11.86
2023-02-23T13:32:17.853Z,11.54
2023-02-23T13:35:00.626Z,11.57
2023-02-23T13:37:39.419Z,11.68
2023-02-23T13:40:15.938Z,11.53
2023-02-23T13:42:53.142Z,11.33
2023-02-23T13:45:26.086Z,11.37
2023-02-23T13:47:55.946Z,11.61
2023-02-23T13:50:49.329Z,11.66
2023-02-23T13:53:33.042Z,11.47
2023-02-23T13:56:04.168Z,11.96
2023-02-23T13:58:32.329Z,12.17
2023-02-23T14:01:21.381Z,12.19
2023-02-23T14:03:55.106Z,11.32
2023-02-23T14:06:25.638Z,11.04
2023-02-23T14:09:00.735Z,10.91
2023-02-23T14:11:37.761Z,10.89
2023-02-23T14:14:04.659Z,11.57
2023-02-23T14:16:31.415Z,11.66
2023-02-23T14:19:03.924Z,11.79
2023-02-23T14:21:33.457Z,11.46
2023-02-23T14:24:21.563Z,11.70
2023-02-23T14:27:40.207Z,11.98
2023-02-23T14:30:10.791Z,12.21
2023-02-23T14:32:43.003Z,12.30
2023-02-23T14:35:47.453Z,12.16
2023-02-23T14:38:47.926Z,11.96
2023-02-23T14:41:21.787Z,11.75
2023-02-23T14:43:52.796Z,12.28
2023-02-23T14:46:25.213Z,12.40
2023-02-23T14:49:12.361Z,11.32
2023-02-23T14:51:47.952Z,12.11
2023-02-23T14:54:23.867Z,12.10
2023-02-23T14:56:53.144Z,12.19
2023-02-23T14:59:27.035Z,12.49
2023-02-23T15:01:54.545Z,12.07
2023-02-23T15:04:24.343Z,11.64
2023-02-23T15:06:54.680Z,11.88
2023-02-23T15:09:42.594Z,12.21
2023-02-23T15:12:14.974Z,11.84
2023-02-23T15:14:41.825Z,11.89
2023-02-23T15:17:14.117Z,11.71
2023-02-23T15:19:40.656Z,11.98
2023-02-23T15:22:07.382Z,11.88
2023-02-23T15:24:43.334Z,11.81
2023-02-23T15:27:23.564Z,11.81
2023-02-23T15:29:50.711Z,11.75
2023-02-23T15:32:24.903Z,12.35
2023-02-23T15:34:53.364Z,12.54
2023-02-23T15:37:26.722Z,12.41
2023-02-23T15:39:56.963Z,12.57
2023-02-23T15:42:26.529Z,12.73
2023-02-23T15:44:59.592Z,12.85
2023-02-23T15:47:31.619Z,12.86
2023-02-23T15:50:06.166Z,12.83
2023-02-23T15:52:35.241Z,12.72
2023-02-23T15:55:06.956Z,12.47
2023-02-23T15:57:49.682Z,12.70
2023-02-23T16:00:32.898Z,12.55
2023-02-23T16:03:02.570Z,12.63
2023-02-23T16:05:41.765Z,12.80
2023-02-23T16:08:27.621Z,12.77
2023-02-23T16:11:02.351Z,12.15
2023-02-23T16:13:29.069Z,11.92
2023-02-23T16:15:55.878Z,12.14
2023-02-23T16:18:33.061Z,11.89
2023-02-23T16:20:59.700Z,11.56
2023-02-23T16:23:34.058Z,11.78
2023-02-23T16:26:12.446Z,11.98
2023-02-23T16:28:44.682Z,11.32
2023-02-23T16:31:13.354Z,11.34
2023-02-23T16:33:56.841Z,11.85
2023-02-23T16:36:25.138Z,11.69
2023-02-23T16:38:59.964Z,11.84
2023-02-23T16:41:33.724Z,11.05
2023-02-23T16:44:02.531Z,10.54
2023-02-23T16:46:37.705Z,11.22
2023-02-23T16:49:10.421Z,11.33
2023-02-23T16:51:37.044Z,11.66
2023-02-23T16:54:03.984Z,11.76
2023-02-23T16:56:31.209Z,11.10
2023-02-23T16:59:01.316Z,11.75
2023-02-23T17:01:28.089Z,11.75
2023-02-23T17:03:54.600Z,12.16
2023-02-23T17:06:22.437Z,12.28
2023-02-23T17:08:57.367Z,11.78
2023-02-23T17:11:24.536Z,12.16
2023-02-23T17:13:51.189Z,12.30
2023-02-23T17:16:21.258Z,12.07
2023-02-23T17:18:48.876Z,12.06
2023-02-23T17:21:16.238Z,11.93
2023-02-23T17:23:50.791Z,12.17
2023-02-23T17:26:20.503Z,11.86
2023-02-23T17:28:51.524Z,12.27
2023-02-23T17:31:20.022Z,11.87
2023-02-23T17:33:47.493Z,11.96
2023-02-23T17:36:17.013Z,12.12
2023-02-23T17:38:44.837Z,12.18
2023-02-23T17:41:19.616Z,11.93
2023-02-23T17:43:46.627Z,11.90
2023-02-23T17:46:13.400Z,11.68
2023-02-23T17:48:40.798Z,12.04
2023-02-23T17:51:09.130Z,12.05
2023-02-23T17:53:36.277Z,11.82
2023-02-23T17:56:04.491Z,11.68
2023-02-23T17:58:33.962Z,11.50
2023-02-23T18:01:02.553Z,11.63
2023-02-23T18:03:34.902Z,11.15
2023-02-23T18:06:12.819Z,11.07
2023-02-23T18:08:42.348Z,10.94
2023-02-23T18:11:09.506Z,10.69
2023-02-23T18:13:36.248Z,10.26
2023-02-23T18:16:10.497Z,10.88
2023-02-23T18:18:42.606Z,10.70
2023-02-23T18:21:14.843Z,10.65
2023-02-23T18:23:42.275Z,11.09
2023-02-23T18:26:11.785Z,10.91
2023-02-23T18:28:40.574Z,10.69
2023-02-23T18:31:07.122Z,11.00
2023-02-23T18:33:35.879Z,11.08
2023-02-23T18:36:03.877Z,10.99
2023-02-23T18:38:30.408Z,11.31
2023-02-23T18:40:57.263Z,11.26
2023-02-23T18:43:23.821Z,11.37
2023-02-23T18:45:50.399Z,11.46
2023-02-23T18:48:16.937Z,11.56
2023-02-23T18:50:43.421Z,11.76
2023-02-23T18:53:10.890Z,11.32
2023-02-23T18:55:37.844Z,11.22
2023-02-23T18:58:05.644Z,11.25
2023-02-23T19:00:42.552Z,11.10
2023-02-23T19:03:10.285Z,10.90
2023-02-23T19:05:37.782Z,11.07
2023-02-23T19:08:08.550Z,11.28
2023-02-23T19:10:36.319Z,11.24
2023-02-23T19:13:02.897Z,11.51
2023-02-23T19:15:30.903Z,11.58
2023-02-23T19:17:57.466Z,11.59
2023-02-23T19:20:24.504Z,10.92
2023-02-23T19:22:51.141Z,10.90
2023-02-23T19:25:17.798Z,11.05
2023-02-23T19:27:44.294Z,11.28
2023-02-23T19:30:11.489Z,11.04
2023-02-23T19:32:39.918Z,11.32
2023-02-23T19:35:09.771Z,11.13
2023-02-23T19:37:39.660Z,11.25
2023-02-23T19:40:06.776Z,10.99
2023-02-23T19:42:35.100Z,11.37
2023-02-23T19:45:01.675Z,11.01
2023-02-23T19:47:28.328Z,11.18
2023-02-23T19:49:55.039Z,10.85
2023-02-23T19:52:23.060Z,10.64
2023-02-23T19:54:49.789Z,11.21
2023-02-23T19:57:16.257Z,11.53
2023-02-23T19:59:42.912Z,11.26
2023-02-23T20:02:10.941Z,11.28
2023-02-23T20:04:37.577Z,11.57
2023-02-23T20:07:04.142Z,11.61
2023-02-23T20:09:30.628Z,11.78
2023-02-23T20:11:57.304Z,11.51
2023-02-23T20:14:24.900Z,11.55
2023-02-23T20:16:51.449Z,11.72
2023-02-23T20:19:19.600Z,11.03
2023-02-23T20:21:46.153Z,11.30
2023-02-23T20:24:13.158Z,11.25
2023-02-23T20:26:40.076Z,11.29
2023-02-23T20:29:10.573Z,10.88
2023-02-23T20:31:38.551Z,10.94
2023-02-23T20:34:09.835Z,11.27
2023-02-23T20:36:36.952Z,10.73
2023-02-23T20:39:16.746Z,11.17
2023-02-23T20:41:45.590Z,11.28
2023-02-23T20:44:12.807Z,11.25
2023-02-23T20:46:40.364Z,10.91
2023-02-23T20:49:11.296Z,11.16
2023-02-23T20:51:39.382Z,11.25
2023-02-23T20:54:07.769Z,11.16
2023-02-23T20:56:34.657Z,11.25
2023-02-23T20:59:02.333Z,11.25
2023-02-23T21:01:28.847Z,11.02
2023-02-23T21:03:56.531Z,11.33
2023-02-23T21:06:24.486Z,11.28
2023-02-23T21:08:55.602Z,11.27
2023-02-23T21:11:27.085Z,11.16
2023-02-23T21:13:53.884Z,11.47
2023-02-23T21:16:23.650Z,11.11
2023-02-23T21:19:03.877Z,11.22
2023-02-23T21:21:41.075Z,10.41
2023-02-23T21:24:08.039Z,10.10
2023-02-23T21:26:35.067Z,10.69
2023-02-23T21:29:02.397Z,10.70
2023-02-23T21:31:29.003Z,10.82
2023-02-23T21:33:55.579Z,10.98
2023-02-23T21:36:22.458Z,10.82
2023-02-23T21:38:49.455Z,10.72
2023-02-23T21:41:16.087Z,11.20
2023-02-23T21:43:43.671Z,11.04
2023-02-23T21:46:13.146Z,11.23
2023-02-23T21:48:40.147Z,11.09
2023-02-23T21:51:08.732Z,11.22
2023-02-23T21:53:37.556Z,10.98
2023-02-23T21:56:20.223Z,10.99
2023-02-23T21:58:56.339Z,10.88
2023-02-23T22:01:25.594Z,11.07
2023-02-23T22:03:54.907Z,11.02
2023-02-23T22:06:27.385Z,10.73
2023-02-23T22:08:54.911Z,10.70
2023-02-23T22:11:24.714Z,11.03
2023-02-23T22:13:59.586Z,10.54
2023-02-23T22:16:30.544Z,10.79
2023-02-23T22:18:58.266Z,10.99
2023-02-23T22:21:24.830Z,11.21
2023-02-23T22:23:53.310Z,10.95
2023-02-23T22:26:20.092Z,10.80
2023-02-23T22:28:46.584Z,10.83
2023-02-23T22:31:13.988Z,10.92
2023-02-23T22:33:42.960Z,11.13
2023-02-23T22:36:12.964Z,10.97
2023-02-23T22:38:41.206Z,10.71
2023-02-23T22:41:11.592Z,10.67
2023-02-23T22:43:38.896Z,10.75
2023-02-23T22:46:07.662Z,11.16
2023-02-23T22:48:35.198Z,11.21
2023-02-23T22:51:02.342Z,11.08
2023-02-23T22:53:29.274Z,11.05
2023-02-23T22:55:56.355Z,11.01
2023-02-23T22:58:24.710Z,10.55
2023-02-23T23:01:06.189Z,10.12
2023-02-23T23:03:40.439Z,10.56
2023-02-23T23:06:09.527Z,10.18
2023-02-23T23:08:40.086Z,10.54
2023-02-23T23:11:09.651Z,10.54
2023-02-23T23:14:01.820Z,10.25
2023-02-23T23:16:33.785Z,9.83
2023-02-23T23:19:03.597Z,9.93
2023-02-23T23:21:32.660Z,9.88
2023-02-23T23:24:01.730Z,9.80
2023-02-23T23:26:29.239Z,9.78
2023-02-23T23:28:58.426Z,9.72
2023-02-23T23:31:29.552Z,10.05
2023-02-23T23:34:00.165Z,9.96
2023-02-23T23:36:32.231Z,9.74
2023-02-23T23:38:59.398Z,10.02
2023-02-23T23:41:27.533Z,10.27
2023-02-23T23:43:56.884Z,10.10
2023-02-23T23:46:29.251Z,10.00
2023-02-23T23:49:02.136Z,10.19
2023-02-23T23:51:37.182Z,10.39
2023-02-23T23:54:04.288Z,10.32
2023-02-23T23:56:30.851Z,10.11
2023-02-23T23:58:58.754Z,9.92
